Time;durP1;ratioP1;P1;durP2;ratioP2;P2;SDS_P1;SDS_P2;PMS_P1;PMS_P2;Temp;Humidity;BMP_temperature;BMP_pressure;BME280_temperature;BME280_humidity;BME280_pressure;Samples;Min_cycle;Max_cycle;Signal;HPM_P1;HPM_P2
2022/10/24 00:00:19;;;;;;;2.37;1.37;;;;;;;14.60;97.88;100657.66;6242472;28;20614;-74
2022/10/24 00:03:41;;;;;;;1.47;1.37;;;;;;;14.54;97.52;100652.91;6277019;28;20745;-74
2022/10/24 00:07:02;;;;;;;1.30;1.20;;;;;;;14.52;97.69;100652.22;6241588;28;20764;-74
2022/10/24 00:10:22;;;;;;;1.30;1.00;;;;;;;14.49;98.12;100656.13;6263660;28;20515;-74
2022/10/24 00:13:45;;;;;;;3.53;1.73;;;;;;;14.49;97.86;100652.56;6259331;28;20346;-75
2022/10/24 00:17:06;;;;;;;1.33;1.23;;;;;;;14.52;97.85;100644.91;6264789;28;20239;-75
2022/10/24 00:20:27;;;;;;;6.53;1.53;;;;;;;14.51;97.75;100642.38;6253326;28;20334;-74
2022/10/24 00:23:48;;;;;;;2.63;1.07;;;;;;;14.60;97.03;100644.94;6284804;28;20219;-75
2022/10/24 00:27:09;;;;;;;1.60;1.50;;;;;;;14.60;97.14;100646.81;6262394;28;20223;-74
2022/10/24 00:30:31;;;;;;;1.20;1.10;;;;;;;14.52;97.23;100654.94;6252230;28;20239;-73
2022/10/24 00:33:52;;;;;;;3.43;1.30;;;;;;;14.46;97.36;100661.88;6283880;28;20243;-73
2022/10/24 00:37:13;;;;;;;2.63;1.40;;;;;;;14.47;97.73;100660.88;6255723;28;20835;-75
2022/10/24 00:40:34;;;;;;;1.47;0.90;;;;;;;14.43;97.33;100658.63;6255965;28;20280;-73
2022/10/24 00:44:26;;;;;;;2.27;1.27;;;;;;;14.31;97.83;100653.53;6264287;28;20258;-74
2022/10/24 00:47:49;;;;;;;2.87;1.53;;;;;;;14.38;97.90;100645.56;6182736;28;20237;-74
2022/10/24 00:51:20;;;;;;;3.33;1.87;;;;;;;14.34;97.52;100642.34;6274524;28;20231;-74
2022/10/24 00:54:42;;;;;;;2.93;1.77;;;;;;;14.25;97.96;100637.88;6270824;28;20227;-73
2022/10/24 00:58:04;;;;;;;3.57;1.30;;;;;;;14.27;98.16;100637.72;6260247;28;20696;-74
2022/10/24 01:01:25;;;;;;;4.93;1.07;;;;;;;14.28;97.95;100632.19;6238680;28;20562;-74
2022/10/24 01:04:47;;;;;;;1.50;1.20;;;;;;;14.26;97.97;100627.88;6273399;28;20588;-73
2022/10/24 01:08:19;;;;;;;6.07;2.03;;;;;;;14.20;97.89;100617.72;6263447;28;20815;-75
2022/10/24 01:11:52;;;;;;;6.00;2.20;;;;;;;14.12;98.15;100620.41;6261908;28;20232;-75
2022/10/24 01:15:19;;;;;;;4.07;1.93;;;;;;;14.10;98.07;100609.72;6270775;28;20235;-75
2022/10/24 01:18:47;;;;;;;2.20;1.20;;;;;;;14.04;98.48;100613.09;6271551;28;20433;-75
2022/10/24 01:22:16;;;;;;;2.03;1.40;;;;;;;14.09;98.27;100620.72;6266590;28;20235;-74
2022/10/24 01:25:48;;;;;;;2.37;1.10;;;;;;;14.07;97.76;100622.75;6278273;28;20226;-74
2022/10/24 01:29:17;;;;;;;2.83;1.37;;;;;;;14.03;97.87;100615.97;6288164;28;20235;-74
2022/10/24 01:32:51;;;;;;;1.23;1.13;;;;;;;14.07;98.26;100618.19;6273755;28;20514;-74
2022/10/24 01:36:16;;;;;;;0.87;0.87;;;;;;;14.04;97.87;100617.69;6274592;28;20318;-73
2022/10/24 01:39:43;;;;;;;2.40;1.23;;;;;;;13.99;97.94;100609.19;6287424;28;20254;-74
2022/10/24 01:43:10;;;;;;;2.57;1.10;;;;;;;13.99;98.01;100606.47;6265616;28;20235;-73
2022/10/24 01:46:35;;;;;;;0.90;0.90;;;;;;;13.92;98.17;100610.84;6274422;28;20227;-74
2022/10/24 01:50:01;;;;;;;1.77;1.10;;;;;;;13.88;98.41;100601.34;6284294;28;20616;-73
2022/10/24 01:53:24;;;;;;;1.73;1.63;;;;;;;13.89;98.41;100603.06;6278632;28;21768;-74
2022/10/24 01:56:46;;;;;;;1.53;0.77;;;;;;;13.85;98.39;100609.81;6273981;28;20223;-75
2022/10/24 02:00:13;;;;;;;1.27;1.17;;;;;;;13.82;98.13;100600.16;6286366;28;21108;-74
2022/10/24 02:03:38;;;;;;;2.70;1.33;;;;;;;13.78;98.45;100603.34;6268344;28;20234;-74
2022/10/24 02:07:03;;;;;;;1.37;1.27;;;;;;;13.79;98.64;100596.91;6273040;28;20684;-74
2022/10/24 02:10:28;;;;;;;3.33;1.83;;;;;;;13.76;98.46;100597.25;6284896;28;20885;-75
2022/10/24 02:13:56;;;;;;;1.93;1.40;;;;;;;13.81;98.24;100593.00;6281980;28;20235;-75
2022/10/24 02:17:18;;;;;;;1.70;1.47;;;;;;;13.76;98.05;100589.97;6259655;28;20219;-74
2022/10/24 02:20:43;;;;;;;2.20;1.33;;;;;;;13.77;97.92;100583.50;6276454;28;20342;-74
2022/10/24 02:24:15;;;;;;;11.87;1.70;;;;;;;13.77;97.74;100579.97;6275735;28;20251;-73
2022/10/24 02:27:40;;;;;;;1.60;1.50;;;;;;;13.72;97.75;100583.19;6271922;28;20797;-74
2022/10/24 02:31:06;;;;;;;1.40;1.30;;;;;;;13.71;97.86;100565.22;6272527;28;20239;-73
2022/10/24 02:34:32;;;;;;;1.20;1.20;;;;;;;13.79;97.70;100573.38;6284024;28;20235;-73
2022/10/24 02:37:57;;;;;;;2.57;1.20;;;;;;;13.66;97.85;100562.16;6275277;28;20243;-74
2022/10/24 02:41:23;;;;;;;3.87;2.57;;;;;;;13.69;97.67;100553.69;6272938;28;20231;-73
2022/10/24 02:44:47;;;;;;;3.27;1.30;;;;;;;13.68;97.55;100545.72;6283750;28;20231;-73
2022/10/24 02:48:11;;;;;;;1.20;1.20;;;;;;;13.68;97.44;100549.31;6270333;28;20505;-74
2022/10/24 02:51:35;;;;;;;2.33;1.87;;;;;;;13.58;97.96;100544.00;6270951;28;20616;-74
2022/10/24 02:54:56;;;;;;;1.23;0.83;;;;;;;13.62;97.86;100553.50;6283030;28;20227;-74
2022/10/24 02:58:18;;;;;;;1.07;0.93;;;;;;;13.60;97.91;100546.56;6276862;28;20366;-73
2022/10/24 03:01:38;;;;;;;1.03;0.87;;;;;;;13.57;97.95;100549.59;6268464;28;20235;-73
2022/10/24 03:05:00;;;;;;;2.00;1.20;;;;;;;13.52;98.10;100543.78;6280641;28;20235;-73
2022/10/24 03:08:21;;;;;;;1.63;1.53;;;;;;;13.45;98.31;100540.06;6283734;28;20494;-74
2022/10/24 03:11:42;;;;;;;2.43;0.93;;;;;;;13.40;98.76;100536.97;6269280;28;20311;-74
2022/10/24 03:15:04;;;;;;;2.43;2.03;;;;;;;13.38;98.82;100545.28;6278475;28;20258;-74
2022/10/24 03:18:25;;;;;;;3.17;2.27;;;;;;;13.36;98.49;100533.75;6288411;28;20235;-74
2022/10/24 03:21:46;;;;;;;2.23;1.23;;;;;;;13.34;99.17;100524.94;6272667;28;20223;-74
2022/10/24 03:25:07;;;;;;;1.73;1.63;;;;;;;13.39;98.63;100527.19;6282484;28;20231;-75
2022/10/24 03:28:28;;;;;;;2.90;1.50;;;;;;;13.28;98.85;100522.91;6284164;28;20231;-74
2022/10/24 03:31:50;;;;;;;3.37;1.10;;;;;;;13.23;99.07;100522.53;6244899;28;20224;-74
2022/10/24 03:35:11;;;;;;;7.10;1.57;;;;;;;13.20;99.09;100520.16;6272484;28;20226;-75
2022/10/24 03:38:31;;;;;;;1.40;0.93;;;;;;;13.27;99.07;100531.16;6262809;28;20235;-75
2022/10/24 03:41:52;;;;;;;2.30;1.40;;;;;;;13.17;99.17;100531.28;6274853;28;20226;-75
2022/10/24 03:45:14;;;;;;;1.90;1.50;;;;;;;13.17;99.46;100531.28;6255148;28;20228;-74
2022/10/24 03:48:37;;;;;;;2.23;1.20;;;;;;;13.17;99.02;100528.59;6254215;28;20227;-74
2022/10/24 03:51:57;;;;;;;1.27;1.17;;;;;;;13.16;98.98;100523.34;6260303;28;20240;-74
2022/10/24 03:55:18;;;;;;;1.90;1.80;;;;;;;13.12;99.19;100530.91;6250619;28;20837;-74
2022/10/24 03:58:39;;;;;;;2.00;1.80;;;;;;;13.12;99.09;100528.22;6256222;28;20232;-73
2022/10/24 04:02:00;;;;;;;3.10;1.60;;;;;;;13.06;99.35;100523.44;6250229;28;20246;-73
2022/10/24 04:05:23;;;;;;;2.40;1.87;;;;;;;13.03;99.11;100512.94;6273212;28;20230;-75
2022/10/24 04:08:44;;;;;;;1.73;1.43;;;;;;;13.10;99.02;100515.88;6283680;28;20231;-74
2022/10/24 04:12:05;;;;;;;1.40;1.30;;;;;;;13.09;99.33;100511.44;6252794;28;20632;-74
2022/10/24 04:15:26;;;;;;;1.70;1.60;;;;;;;13.08;98.91;100509.78;6263726;28;20231;-74
2022/10/24 04:18:46;;;;;;;1.17;1.00;;;;;;;13.09;99.26;100509.59;6264307;28;20224;-74
2022/10/24 04:22:09;;;;;;;1.47;1.30;;;;;;;13.11;98.90;100504.88;6267599;28;20555;-74
2022/10/24 04:25:30;;;;;;;3.50;3.20;;;;;;;13.10;98.61;100492.34;6263253;28;20255;-75
2022/10/24 04:28:50;;;;;;;2.33;2.13;;;;;;;13.03;98.67;100490.41;6274478;28;20228;-73
2022/10/24 04:32:12;;;;;;;3.10;1.47;;;;;;;13.05;98.94;100500.13;6264162;28;20295;-74
2022/10/24 04:35:32;;;;;;;1.63;1.17;;;;;;;13.07;98.81;100497.25;6268262;28;20232;-74
2022/10/24 04:38:55;;;;;;;2.60;1.20;;;;;;;13.14;98.79;100504.53;6266017;28;20231;-74
2022/10/24 04:42:15;;;;;;;2.80;1.63;;;;;;;13.14;98.74;100509.13;6273565;28;20219;-72
2022/10/24 04:45:36;;;;;;;2.33;1.90;;;;;;;13.16;98.66;100494.41;6273474;28;20223;-74
2022/10/24 04:48:57;;;;;;;1.30;1.20;;;;;;;13.17;98.55;100493.41;6289672;28;20251;-74
2022/10/24 04:52:18;;;;;;;1.17;1.07;;;;;;;13.18;98.65;100505.94;6265039;28;20235;-73
2022/10/24 04:55:40;;;;;;;1.57;1.33;;;;;;;13.17;98.58;100498.81;6258642;28;20235;-74
2022/10/24 04:59:01;;;;;;;3.37;1.37;;;;;;;13.18;98.48;100511.34;6269750;28;20255;-74
2022/10/24 05:02:22;;;;;;;1.37;1.27;;;;;;;13.20;98.58;100500.34;6258478;28;20227;-75
2022/10/24 05:05:43;;;;;;;2.33;1.07;;;;;;;13.18;98.50;100494.25;6250465;28;20671;-74
2022/10/24 05:09:04;;;;;;;1.67;1.57;;;;;;;13.15;98.72;100505.41;6273000;28;20635;-74
2022/10/24 05:12:26;;;;;;;3.23;1.33;;;;;;;13.17;98.38;100500.66;6260913;28;20227;-74
2022/10/24 05:15:47;;;;;;;1.80;1.40;;;;;;;13.22;98.23;100492.91;6235866;28;20220;-74
2022/10/24 05:19:08;;;;;;;4.83;2.70;;;;;;;13.30;98.08;100501.94;6271344;28;20240;-75
2022/10/24 05:22:28;;;;;;;3.43;1.30;;;;;;;13.32;97.41;100497.19;6265294;28;20231;-74
2022/10/24 05:25:49;;;;;;;4.00;2.33;;;;;;;13.34;97.42;100494.31;6263716;28;20413;-74
2022/10/24 05:29:11;;;;;;;2.47;2.00;;;;;;;13.37;97.15;100486.69;6276449;28;20227;-75
2022/10/24 05:32:32;;;;;;;2.13;1.93;;;;;;;13.44;96.60;100489.59;6261413;28;20227;-74
2022/10/24 05:35:52;;;;;;;2.40;1.53;;;;;;;13.48;96.14;100488.28;6262735;28;20801;-74
2022/10/24 05:39:13;;;;;;;2.43;2.23;;;;;;;13.46;96.21;100495.72;6264981;28;20555;-74
2022/10/24 05:42:35;;;;;;;5.90;2.10;;;;;;;13.52;95.75;100489.63;6258375;28;20322;-76
2022/10/24 05:45:57;;;;;;;1.70;1.60;;;;;;;13.58;95.19;100497.94;6219770;28;20228;-73
2022/10/24 05:49:18;;;;;;;2.23;1.77;;;;;;;13.64;94.84;100489.16;6253039;28;20319;-75
2022/10/24 05:52:41;;;;;;;2.23;2.03;;;;;;;13.67;94.20;100497.97;6264062;28;20309;-75
2022/10/24 05:56:02;;;;;;;2.87;1.30;;;;;;;13.75;93.81;100509.69;6242053;28;20254;-72
2022/10/24 05:59:23;;;;;;;3.97;1.20;;;;;;;13.76;93.45;100499.69;6258482;28;20228;-75
2022/10/24 06:02:45;;;;;;;2.57;1.47;;;;;;;13.74;93.53;100497.16;6249066;28;20254;-73
2022/10/24 06:06:07;;;;;;;1.53;1.43;;;;;;;13.75;93.63;100500.72;6234144;28;20235;-73
2022/10/24 06:09:28;;;;;;;4.93;1.97;;;;;;;13.82;92.99;100491.75;6259222;28;20238;-75
2022/10/24 06:12:49;;;;;;;7.63;1.80;;;;;;;13.79;92.78;100493.97;6278314;28;20239;-77
2022/10/24 06:16:11;;;;;;;5.60;3.30;;;;;;;13.76;93.26;100500.56;6280881;28;20237;-75
2022/10/24 06:19:34;;;;;;;3.40;1.87;;;;;;;13.77;93.57;100498.69;6240698;28;20243;-72
2022/10/24 06:22:55;;;;;;;1.80;1.40;;;;;;;13.71;93.44;100488.50;6245109;28;21019;-74
2022/10/24 06:26:16;;;;;;;3.67;1.60;;;;;;;13.72;93.37;100501.91;6232871;28;20215;-73
2022/10/24 06:29:37;;;;;;;4.30;2.23;;;;;;;13.94;94.52;100492.28;6244220;28;20435;-74
2022/10/24 06:32:58;;;;;;;3.53;2.10;;;;;;;14.02;92.85;100478.72;6226493;28;20227;-73
2022/10/24 06:36:20;;;;;;;5.97;3.10;;;;;;;14.26;93.20;100484.19;6267221;28;20231;-74
2022/10/24 06:39:40;;;;;;;5.33;4.03;;;;;;;14.07;91.53;100479.09;6265338;28;20235;-77
2022/10/24 06:43:01;;;;;;;3.63;1.80;;;;;;;14.04;92.08;100485.69;6236166;28;20590;-81
2022/10/24 06:46:23;;;;;;;2.27;2.17;;;;;;;14.03;92.16;100492.13;6258113;28;20227;-74
2022/10/24 06:49:44;;;;;;;2.10;1.90;;;;;;;14.27;91.13;100485.84;6260775;28;20220;-76
2022/10/24 06:53:07;;;;;;;4.27;2.00;;;;;;;14.34;90.89;100487.78;6243685;28;20253;-76
2022/10/24 06:56:27;;;;;;;3.00;1.63;;;;;;;14.21;90.79;100500.09;6261188;28;20224;-73
2022/10/24 06:59:48;;;;;;;3.00;1.87;;;;;;;14.28;90.46;100501.13;6258114;28;21399;-74
2022/10/24 07:03:14;;;;;;;3.07;2.07;;;;;;;14.29;90.23;100500.97;6265074;28;20243;-74
2022/10/24 07:06:35;;;;;;;4.80;2.10;;;;;;;14.45;90.37;100500.16;6268891;28;20227;-74
2022/10/24 07:09:57;;;;;;;6.10;2.03;;;;;;;14.51;88.94;100512.16;6259245;28;20235;-74
2022/10/24 07:13:18;;;;;;;5.47;2.10;;;;;;;14.51;89.12;100513.03;6260223;28;20231;-74
2022/10/24 07:16:39;;;;;;;2.80;1.47;;;;;;;14.52;89.02;100516.59;6254608;28;20496;-72
2022/10/24 07:20:00;;;;;;;4.67;2.33;;;;;;;14.54;89.09;100531.66;6266018;28;21078;-74
2022/10/24 07:23:21;;;;;;;4.20;1.60;;;;;;;14.60;88.88;100524.72;6259079;28;20243;-71
2022/10/24 07:26:43;;;;;;;4.20;2.13;;;;;;;14.67;88.35;100533.84;6250199;28;20230;-72
2022/10/24 07:30:05;;;;;;;3.43;2.17;;;;;;;14.75;87.85;100528.44;6262319;28;20230;-78
2022/10/24 07:33:26;;;;;;;2.23;1.87;;;;;;;14.80;87.26;100537.75;6255026;28;20226;-74
2022/10/24 07:36:47;;;;;;;2.30;2.10;;;;;;;14.82;87.57;100533.00;6258060;28;20234;-78
2022/10/24 07:40:09;;;;;;;4.20;2.20;;;;;;;14.84;87.32;100532.81;6275823;28;20239;-74
2022/10/24 07:43:31;;;;;;;2.50;1.63;;;;;;;14.88;87.56;100537.75;6271447;28;20231;-75
2022/10/24 07:46:52;;;;;;;3.20;1.87;;;;;;;14.91;87.34;100547.41;6265457;28;20239;-75
2022/10/24 07:50:14;;;;;;;2.47;1.67;;;;;;;15.01;86.71;100554.34;6270196;28;20231;-79
2022/10/24 07:53:35;;;;;;;2.53;1.93;;;;;;;15.10;86.31;100550.59;6251585;28;20226;-78
2022/10/24 07:56:56;;;;;;;3.23;2.07;;;;;;;15.17;86.17;100553.47;6259565;28;20251;-80
2022/10/24 08:00:18;;;;;;;2.60;1.50;;;;;;;15.18;85.82;100556.03;6251043;28;20266;-74
2022/10/24 08:03:40;;;;;;;13.93;2.13;;;;;;;15.24;85.80;100554.47;6241577;28;20235;-74
2022/10/24 08:07:01;;;;;;;10.37;3.70;;;;;;;15.37;84.90;100543.91;6240752;28;20676;-72
2022/10/24 08:10:22;;;;;;;3.23;2.67;;;;;;;15.42;85.00;100549.66;6260735;28;20222;-76
2022/10/24 08:13:43;;;;;;;10.07;2.10;;;;;;;15.58;84.76;100548.78;6274671;28;20223;-77
2022/10/24 08:17:05;;;;;;;2.93;1.97;;;;;;;15.60;84.42;100553.03;6255304;28;20243;-77
2022/10/24 08:20:26;;;;;;;3.43;1.93;;;;;;;15.64;84.37;100542.63;6251099;28;20243;-73
2022/10/24 08:23:49;;;;;;;2.93;2.40;;;;;;;15.79;83.56;100544.41;6239041;28;20234;-73
2022/10/24 08:27:10;;;;;;;1.87;1.60;;;;;;;16.13;82.64;100551.34;6265271;28;20314;-72
2022/10/24 08:30:30;;;;;;;3.67;1.37;;;;;;;16.10;82.41;100539.00;6265171;28;20223;-79
2022/10/24 08:33:54;;;;;;;5.53;2.37;;;;;;;16.15;82.34;100544.72;6262365;28;20227;-72
2022/10/24 08:37:15;;;;;;;5.97;2.67;;;;;;;16.30;81.28;100545.63;6271022;28;20246;-75
2022/10/24 08:40:36;;;;;;;2.57;1.43;;;;;;;16.33;81.45;100536.28;6260768;28;20875;-79
2022/10/24 08:44:00;;;;;;;3.20;2.83;;;;;;;16.44;80.84;100530.38;6277464;28;20269;-80
2022/10/24 08:47:29;;;;;;;11.17;2.43;;;;;;;16.70;80.38;100531.75;6253587;28;20256;-74
2022/10/24 08:50:59;;;;;;;1.80;1.53;;;;;;;16.68;79.49;100541.97;6252653;28;20314;-76
2022/10/24 08:54:25;;;;;;;5.03;1.80;;;;;;;17.07;78.12;100533.56;6242036;28;20258;-74
2022/10/24 08:57:51;;;;;;;4.30;1.47;;;;;;;17.05;77.98;100523.91;6261331;28;20242;-78
2022/10/24 09:01:16;;;;;;;4.20;1.70;;;;;;;16.70;79.07;100530.88;6264456;28;20314;-75
2022/10/24 09:04:41;;;;;;;1.70;1.37;;;;;;;16.38;80.26;100540.13;6258665;28;20235;-76
2022/10/24 09:08:16;;;;;;;3.73;1.93;;;;;;;16.34;80.74;100535.22;6256457;28;20231;-76
2022/10/24 09:11:46;;;;;;;2.07;1.87;;;;;;;16.47;80.02;100538.19;6248846;28;20235;-80
2022/10/24 09:15:15;;;;;;;3.30;1.67;;;;;;;17.25;76.91;100525.06;6282568;28;20239;-77
2022/10/24 09:18:38;;;;;;;2.35;1.30;;;;;;;19.12;70.22;100521.03;6246888;28;20246;-79
2022/10/24 09:22:02;;;;;;;4.45;1.27;;;;;;;20.36;64.67;100511.72;6254071;28;20235;-78
2022/10/24 09:25:29;;;;;;;3.42;1.50;;;;;;;21.55;60.29;100516.91;6239273;28;20317;-76
2022/10/24 09:28:50;;;;;;;3.83;1.92;;;;;;;20.89;61.10;100524.38;6263311;28;20343;-76
2022/10/24 09:32:26;;;;;;;4.57;1.90;;;;;;;21.38;59.59;100515.72;6249069;28;21108;-77
2022/10/24 09:35:50;;;;;;;4.90;1.63;;;;;;;18.64;68.91;100527.38;6243027;28;20228;-76
2022/10/24 09:39:25;;;;;;;7.50;3.88;;;;;;;17.85;72.39;100530.28;6250236;28;20228;-76
2022/10/24 09:42:54;;;;;;;2.90;2.38;;;;;;;18.08;71.98;100528.25;6227428;28;20846;-75
2022/10/24 09:46:18;;;;;;;5.53;1.70;;;;;;;18.05;71.82;100534.94;6237377;28;20231;-77
2022/10/24 09:49:41;;;;;;;3.17;1.77;;;;;;;17.97;71.58;100526.88;6254939;28;20236;-78
2022/10/24 09:53:03;;;;;;;5.20;1.35;;;;;;;19.13;67.71;100524.59;6262566;28;20239;-75
2022/10/24 09:56:33;;;;;;;3.90;0.85;;;;;;;19.28;65.45;100528.06;6258267;28;20832;-75
2022/10/24 10:00:00;;;;;;;2.97;1.45;;;;;;;21.65;58.41;100517.31;6282078;28;20219;-75
2022/10/24 10:03:22;;;;;;;3.75;2.00;;;;;;;22.45;54.67;100526.81;6266600;28;20262;-83
2022/10/24 10:06:45;;;;;;;1.45;0.95;;;;;;;25.56;46.38;100514.97;6249566;28;20391;-81
2022/10/24 10:10:22;;;;;;;3.63;1.52;;;;;;;25.07;48.00;100513.56;6251483;28;20231;-77
2022/10/24 10:13:48;;;;;;;4.85;1.50;;;;;;;22.32;54.52;100538.75;6278135;28;20230;-76
2022/10/24 10:17:21;;;;;;;5.57;1.67;;;;;;;23.59;51.01;100518.00;6248897;28;20228;-77
2022/10/24 10:20:43;;;;;;;13.15;2.75;;;;;;;25.13;46.54;100521.72;6240459;28;20516;-76
2022/10/24 10:24:24;;;;;;;5.07;1.65;;;;;;;23.61;50.70;100507.59;6270383;28;20624;-76
2022/10/24 10:27:51;;;;;;;3.90;1.40;;;;;;;23.82;50.07;100514.56;6247179;28;20665;-79
2022/10/24 10:31:12;;;;;;;1.17;1.10;;;;;;;25.16;46.32;100515.69;6246694;28;20798;-78
2022/10/24 10:34:38;;;;;;;2.67;1.58;;;;;;;24.08;46.87;100517.00;6269276;28;20227;-78
2022/10/24 10:38:13;;;;;;;2.00;1.42;;;;;;;25.46;45.04;100509.22;6259414;28;20259;-80
2022/10/24 10:41:46;;;;;;;1.55;1.45;;;;;;;24.67;46.74;100512.50;6257127;28;20251;-75
2022/10/24 10:45:16;;;;;;;2.50;1.00;;;;;;;24.22;48.40;100506.66;6249217;28;20228;-74
2022/10/24 10:48:49;;;;;;;1.70;1.55;;;;;;;22.60;51.25;100494.41;6248677;28;20645;-74
2022/10/24 10:52:16;;;;;;;1.63;1.52;;;;;;;19.96;59.84;100510.75;6242809;28;20313;-74
2022/10/24 10:55:41;;;;;;;10.98;3.22;;;;;;;20.14;59.38;100512.88;6246647;28;20235;-73
2022/10/24 10:59:16;;;;;;;2.80;1.50;;;;;;;19.86;60.58;100516.59;6236934;28;20621;-75
2022/10/24 11:02:58;;;;;;;7.72;1.52;;;;;;;19.01;62.47;100520.72;6231146;28;20256;-79
2022/10/24 11:06:32;;;;;;;1.90;1.42;;;;;;;18.86;62.71;100520.81;6221237;28;20448;-82
2022/10/24 11:09:58;;;;;;;2.75;1.88;;;;;;;19.17;61.75;100518.53;6220195;28;20229;-78
2022/10/24 11:13:24;;;;;;;3.67;2.05;;;;;;;19.21;60.73;100531.81;6248319;28;20618;-74
2022/10/24 11:16:46;;;;;;;3.55;1.60;;;;;;;19.22;60.12;100525.28;6225101;28;20229;-74
2022/10/24 11:20:17;;;;;;;1.58;1.48;;;;;;;19.47;60.18;100527.38;6240344;28;20253;-80
2022/10/24 11:23:43;;;;;;;2.53;1.63;;;;;;;20.87;55.73;100517.41;6235834;28;20236;-81
2022/10/24 11:27:10;;;;;;;1.00;0.90;;;;;;;19.37;59.48;100526.03;6222224;28;20224;-78
2022/10/24 11:30:43;;;;;;;2.58;1.20;;;;;;;19.64;58.71;100515.03;6221804;28;20228;-72
2022/10/24 11:34:12;;;;;;;1.20;0.93;;;;;;;19.94;57.80;100523.81;6254340;28;20231;-78
2022/10/24 11:37:36;;;;;;;4.68;1.27;;;;;;;19.08;59.79;100521.63;6247460;28;20219;-76
2022/10/24 11:41:15;;;;;;;1.10;1.00;;;;;;;18.89;60.09;100511.41;6242352;28;20503;-75
2022/10/24 11:44:47;;;;;;;3.10;1.23;;;;;;;18.82;60.41;100530.47;6237011;28;20227;-82
2022/10/24 11:48:19;;;;;;;3.05;1.40;;;;;;;18.76;60.58;100523.06;6221559;28;20227;-77
2022/10/24 11:51:45;;;;;;;2.63;0.82;;;;;;;18.72;60.71;100521.78;6234090;28;20259;-79
2022/10/24 11:55:13;;;;;;;3.42;1.00;;;;;;;18.68;59.94;100528.66;6224089;28;20255;-78
2022/10/24 11:58:41;;;;;;;1.02;0.50;;;;;;;18.64;60.32;100527.38;6238866;28;20235;-80
2022/10/24 12:02:45;;;;;;;2.58;0.80;;;;;;;18.56;59.99;100521.19;6231016;28;20609;-75
2022/10/24 12:06:20;;;;;;;2.17;1.27;;;;;;;18.57;60.10;100509.22;6230991;28;20240;-75
2022/10/24 12:10:06;;;;;;;0.75;0.75;;;;;;;18.61;60.56;100522.28;6226288;28;20520;-80
2022/10/24 12:13:42;;;;;;;2.15;0.88;;;;;;;18.73;59.74;100525.34;6235588;28;20534;-78
2022/10/24 12:17:28;;;;;;;5.15;1.35;;;;;;;18.79;59.96;100535.47;6237357;28;20226;-76
2022/10/24 12:20:53;;;;;;;3.40;0.85;;;;;;;18.90;59.63;100534.94;6226565;28;20240;-76
2022/10/24 12:24:24;;;;;;;3.58;1.00;;;;;;;18.77;60.41;100546.63;6247525;28;20244;-75
2022/10/24 12:27:52;;;;;;;6.68;1.42;;;;;;;18.47;61.47;100531.41;6251404;28;20550;-79
2022/10/24 12:31:21;;;;;;;3.00;2.80;;;;;;;18.49;61.94;100532.06;6221441;28;20306;-78
2022/10/24 12:34:43;;;;;;;2.83;0.80;;;;;;;18.45;62.30;100538.94;6253959;28;20243;-75
2022/10/24 12:38:17;;;;;;;1.50;0.90;;;;;;;18.50;62.09;100541.97;6247085;28;20248;-77
2022/10/24 12:41:40;;;;;;;3.08;0.90;;;;;;;18.27;62.92;100538.53;6236897;28;20228;-75
2022/10/24 12:45:23;;;;;;;0.70;0.52;;;;;;;18.08;63.33;100545.47;6245447;28;20323;-74
2022/10/24 12:48:45;;;;;;;0.65;0.65;;;;;;;18.01;63.93;100536.34;6253706;28;20685;-79
2022/10/24 12:53:01;;;;;;;2.60;1.27;;;;;;;18.00;64.44;100536.56;6216565;28;20220;-78
2022/10/24 12:56:23;;;;;;;2.63;1.10;;;;;;;17.96;64.64;100532.53;6235530;28;20232;-76
2022/10/24 12:59:47;;;;;;;4.65;0.90;;;;;;;18.06;63.87;100512.06;6240803;28;20255;-76
2022/10/24 13:03:20;;;;;;;1.65;1.27;;;;;;;18.50;62.66;100517.38;6219526;28;20236;-75
2022/10/24 13:06:58;;;;;;;3.75;1.58;;;;;;;19.17;61.19;100519.59;6231290;28;20323;-77
2022/10/24 13:10:44;;;;;;;5.40;1.98;;;;;;;19.39;59.46;100521.22;6232784;28;20227;-77
2022/10/24 13:14:41;;;;;;;0.93;0.90;;;;;;;19.36;59.53;100519.72;6253884;28;20495;-75
2022/10/24 13:18:14;;;;;;;4.15;1.00;;;;;;;19.03;59.18;100516.75;6224877;28;20498;-77
2022/10/24 13:21:44;;;;;;;2.58;1.00;;;;;;;18.63;60.66;100517.47;6230884;28;20255;-79
2022/10/24 13:25:20;;;;;;;1.55;0.80;;;;;;;18.67;60.82;100526.97;6237578;28;20227;-77
2022/10/24 13:28:42;;;;;;;4.70;0.80;;;;;;;18.37;61.08;100530.88;6254687;28;20500;-78
2022/10/24 13:32:30;;;;;;;1.13;0.80;;;;;;;18.21;60.97;100537.41;6236143;28;20511;-77
2022/10/24 13:35:53;;;;;;;1.60;0.80;;;;;;;18.12;61.19;100538.59;6237868;28;22020;-78
2022/10/24 13:39:18;;;;;;;8.38;0.98;;;;;;;18.07;61.29;100549.22;6234112;28;20224;-82
2022/10/24 13:42:43;;;;;;;1.42;0.93;;;;;;;18.03;61.85;100545.19;6241180;28;20637;-76
2022/10/24 13:46:08;;;;;;;1.33;0.75;;;;;;;18.01;62.03;100547.25;6230158;28;20257;-76
2022/10/24 13:49:36;;;;;;;0.85;0.73;;;;;;;18.44;60.74;100541.88;6238327;28;20235;-81
2022/10/24 13:53:00;;;;;;;2.42;1.15;;;;;;;18.38;60.25;100557.09;6235632;28;20220;-80
2022/10/24 13:56:21;;;;;;;3.15;0.75;;;;;;;18.62;59.26;100550.44;6232203;28;20342;-73
2022/10/24 13:59:41;;;;;;;1.45;0.57;;;;;;;18.64;58.99;100548.38;6241588;28;20232;-76
2022/10/24 14:03:04;;;;;;;4.15;1.83;;;;;;;19.58;56.83;100539.63;6228279;28;20247;-78
2022/10/24 14:06:33;;;;;;;2.78;1.30;;;;;;;18.55;57.95;100558.56;6221681;28;20239;-79
2022/10/24 14:09:58;;;;;;;1.45;1.35;;;;;;;19.78;55.12;100551.50;6226549;28;20231;-78
2022/10/24 14:13:21;;;;;;;1.00;1.00;;;;;;;20.21;53.50;100554.84;6242536;28;20568;-77
2022/10/24 14:16:42;;;;;;;2.55;1.17;;;;;;;20.17;53.66;100569.97;6230227;28;20224;-77
2022/10/24 14:20:21;;;;;;;1.27;0.77;;;;;;;18.65;58.08;100578.19;6250892;28;20240;-79
2022/10/24 14:24:04;;;;;;;2.60;0.80;;;;;;;18.31;59.52;100580.78;6499371;23;20237;-78
2022/10/24 14:27:25;;;;;;;1.67;1.40;;;;;;;18.52;59.24;100583.56;6190211;28;20490;-78
2022/10/24 14:30:54;;;;;;;2.05;0.60;;;;;;;18.22;60.23;100573.75;6208904;28;20233;-81
2022/10/24 14:34:23;;;;;;;2.20;1.75;;;;;;;19.16;57.59;100565.19;6213494;28;20543;-78
2022/10/24 14:37:46;;;;;;;6.95;1.15;;;;;;;18.74;58.98;100565.25;6212301;28;20232;-78
2022/10/24 14:41:09;;;;;;;5.90;1.40;;;;;;;18.59;59.70;100580.88;6213707;28;20225;-76
2022/10/24 14:44:32;;;;;;;2.00;1.40;;;;;;;18.73;59.54;100579.97;6222161;28;20251;-78
2022/10/24 14:47:54;;;;;;;3.70;1.45;;;;;;;18.30;60.71;100573.63;6194833;28;20287;-76
2022/10/24 14:51:28;;;;;;;2.08;0.88;;;;;;;18.26;61.14;100580.50;6201831;28;20236;-76
2022/10/24 14:54:59;;;;;;;2.72;0.88;;;;;;;17.99;61.99;100573.03;6205398;28;20225;-77
2022/10/24 14:58:25;;;;;;;1.55;0.68;;;;;;;17.94;62.62;100576.34;6199622;28;20232;-78
2022/10/24 15:01:54;;;;;;;1.02;0.75;;;;;;;17.88;62.41;100576.25;6190285;28;20513;-74
2022/10/24 15:05:28;;;;;;;2.63;1.05;;;;;;;17.87;62.72;100572.69;6195882;28;20232;-76
2022/10/24 15:09:02;;;;;;;1.80;0.70;;;;;;;17.81;62.87;100586.25;6198286;28;20220;-74
2022/10/24 15:12:26;;;;;;;1.67;1.55;;;;;;;17.87;62.79;100585.47;6182206;28;20248;-77
2022/10/24 15:15:51;;;;;;;1.02;0.77;;;;;;;17.70;63.36;100586.72;6167765;28;20242;-74
2022/10/24 15:19:18;;;;;;;3.08;1.27;;;;;;;17.67;63.92;100581.66;6197309;28;20248;-73
2022/10/24 15:22:43;;;;;;;2.67;1.00;;;;;;;17.66;64.03;100579.94;6173260;28;20221;-78
2022/10/24 15:26:10;;;;;;;8.93;1.77;;;;;;;17.60;64.35;100575.25;6192696;28;20236;-76
2022/10/24 15:29:31;;;;;;;2.60;0.80;;;;;;;17.51;64.73;100586.25;6196983;28;20234;-76
2022/10/24 15:32:56;;;;;;;1.48;0.80;;;;;;;17.43;65.23;100589.06;6172487;28;20233;-79
2022/10/24 15:36:21;;;;;;;1.90;1.10;;;;;;;17.34;65.79;100590.16;6176587;28;20852;-78
2022/10/24 15:39:42;;;;;;;3.30;1.90;;;;;;;17.25;65.66;100599.44;6193903;28;20313;-73
2022/10/24 15:43:03;;;;;;;3.90;1.10;;;;;;;17.21;66.11;100603.56;6187656;28;20249;-72
2022/10/24 15:46:25;;;;;;;3.23;1.30;;;;;;;17.14;66.51;100612.69;6191476;28;20224;-73
2022/10/24 15:49:48;;;;;;;1.27;1.10;;;;;;;17.12;66.85;100603.84;6197736;28;20744;-75
2022/10/24 15:53:16;;;;;;;4.97;0.90;;;;;;;17.03;67.14;100607.69;6188059;28;20244;-79